Home > Products > Valid Products > MTR

000
SAUS45 KMSO 171453
MTRP69
METAR KP69 171452Z AUTO 00000KT 12/11 A2989 RMK AO1 SLP113 T01220106
50004





000
SAUS45 KMSO 171353
MTRP69
METAR KP69 171352Z AUTO 32003KT 12/11 A2989 RMK AO1 SLP113 T01170106





000
SAUS45 KMSO 171253
MTRP69
METAR KP69 171252Z AUTO 00000KT 12/10 A2989 RMK AO1 SLP108 T01170100





000
SAUS45 KMSO 171153
MTRP69
METAR KP69 171152Z AUTO 00000KT 12/11 A2988 RMK AO1 SLP104 T01170106
10150 20117 53002





000
SAUS45 KMSO 171053
MTRP69
METAR KP69 171052Z AUTO 00000KT 12/11 A2987 RMK AO1 SLP098 T01220111





000
SAUS45 KMSO 170953
MTRP69
METAR KP69 170952Z AUTO 00000KT 13/12 A2987 RMK AO1 SLP095 T01280117





000
SAUS45 KMSO 170853
MTRP69
METAR KP69 170852Z AUTO 00000KT 13/12 A2987 RMK AO1 SLP097 T01330117
52008





000
SAUS45 KMSO 170754
MTRP69
METAR KP69 170752Z AUTO 00000KT 14/12 A2986 RMK AO1 SLP094 T01390122
402830089





000
SAUS45 KMSO 170654
MTRP69
METAR KP69 170652Z AUTO 00000KT 14/13 A2985 RMK AO1 SLP093 T01440128





000
SAUS45 KMSO 170554
MTRP69
METAR KP69 170552Z AUTO 00000KT 15/13 A2985 RMK AO1 SLP096 T01500128
10239 20150 51014





000
SAUS45 KMSO 170454
MTRP69
METAR KP69 170452Z AUTO 00000KT 16/13 A2984 RMK AO1 SLP094 T01560133





000
SAUS45 KMSO 170354
MTRP69
METAR KP69 170352Z AUTO 00000KT 17/14 A2982 RMK AO1 SLP088 T01670139





000
SAUS45 KMSO 170254
MTRP69
METAR KP69 170252Z AUTO 00000KT 18/14 A2980 RMK AO1 SLP086 T01780144
53012





000
SAUS45 KMSO 170154
MTRP69
METAR KP69 170152Z AUTO 00000KT 19/16 A2978 RMK AO1 SLP077 T01940156





000
SAUS45 KMSO 170054
MTRP69
METAR KP69 170052Z AUTO 00000KT 22/15 A2977 RMK AO1 SLP069 T02220150





000
SAUS45 KMSO 162354
MTRP69
METAR KP69 162352Z AUTO 00000KT 23/15 A2977 RMK AO1 SLP067 T02330150
10283 20172 56023





000
SAUS45 KMSO 162254
MTRP69
METAR KP69 162252Z AUTO 00000KT 27/14 A2978 RMK AO1 SLP069 T02670139





000
SAUS45 KMSO 162154
MTRP69
METAR KP69 162152Z AUTO 00000KT 28/12 A2980 RMK AO1 SLP076 T02780122





000
SAUS45 KMSO 162054
MTRP69
METAR KP69 162052Z AUTO 00000KT 26/09 A2984 RMK AO1 SLP087 T02610089
56039





000
SAUS45 KMSO 161954
MTRP69
METAR KP69 161952Z AUTO 00000KT 26/08 A2987 RMK AO1 SLP100 T02610078





000
SAUS45 KMSO 161854
MTRP69
METAR KP69 161852Z AUTO 35003KT 23/07 A2991 RMK AO1 SLP115 T02280072





000
SAUS45 KMSO 161754
MTRP69
METAR KP69 161752Z AUTO 35004KT 17/08 A2996 RMK AO1 SLP136 T01720078
10172 20089 58016





000
SAUS45 KMSO 161653
MTRP69
METAR KP69 161652Z AUTO 35005KT 14/08 A2999 RMK AO1 SLP149 T01390078





000
SAUS45 KMSO 161553
MTRP69
METAR KP69 161552Z AUTO VRB03KT 12/08 A3000 RMK AO1 SLP156 T01170078





000
SAUS45 KMSO 161453
MTRP69
METAR KP69 161452Z AUTO 34004KT 10/07 A3001 RMK AO1 SLP157 T01000072
53005





000
SAUS45 KMSO 161353
MTRP69
METAR KP69 161352Z AUTO 32004KT 09/07 A3000 RMK AO1 SLP155 T00890072





000
SAUS45 KMSO 161254
MTRP69
METAR KP69 161252Z AUTO 32004KT 09/07 A2999 RMK AO1 SLP148 T00940072





000
SAUS45 KMSO 161154
MTRP69
METAR KP69 161152Z AUTO 35003KT 10/08 A2999 RMK AO1 SLP146 T01000078
10128 20100 50001





000
SAUS45 KMSO 161054
MTRP69
METAR KP69 161052Z AUTO 00000KT 10/08 A3000 RMK AO1 SLP145 T01000078





000
SAUS45 KMSO 160954
MTRP69
METAR KP69 160952Z AUTO 34004KT 10/08 A2999 RMK AO1 SLP141 T01000083





000
SAUS45 KMSO 160853
MTRP69
METAR KP69 160852Z AUTO 00000KT 11/09 A2999 RMK AO1 SLP141 T01110089
53010





000
SAUS45 KMSO 160754
MTRP69
METAR KP69 160752Z AUTO 34004KT 12/09 A2998 RMK AO1 SLP138 T01170094
402780056





000
SAUS45 KMSO 160654
MTRP69
METAR KP69 160652Z AUTO 35004KT 12/09 A2996 RMK AO1 SLP135 T01220094





000
SAUS45 KMSO 160554
MTRP69
METAR KP69 160552Z AUTO 00000KT 12/10 A2996 RMK AO1 SLP136 T01220100
10222 20122 53019





000
SAUS45 KMSO 160454
MTRP69
METAR KP69 160452Z AUTO 33003KT 13/11 A2994 RMK AO1 SLP132 T01330106





000
SAUS45 KMSO 160354
MTRP69
METAR KP69 160352Z AUTO 00000KT 14/11 A2992 RMK AO1 SLP129 T01440111





000
SAUS45 KMSO 160254
MTRP69
METAR KP69 160252Z AUTO 35003KT 16/11 A2990 RMK AO1 SLP123 T01610111
53008





000
SAUS45 KMSO 160154
MTRP69
METAR KP69 160152Z AUTO 00000KT 17/12 A2988 RMK AO1 SLP115 T01720122





000
SAUS45 KMSO 160054
MTRP69
METAR KP69 160052Z AUTO 00000KT 19/12 A2987 RMK AO1 SLP111 T01940117





000
SAUS45 KMSO 152354
MTRP69
METAR KP69 152352Z AUTO 00000KT 22/10 A2987 RMK AO1 SLP108 T02220100
10278 20167 56024





000
SAUS45 KMSO 152254
MTRP69
METAR KP69 152252Z AUTO 00000KT 26/11 A2988 RMK AO1 SLP107 T02610106





000
SAUS45 KMSO 152154
MTRP69
METAR KP69 152152Z AUTO 00000KT 27/09 A2990 RMK AO1 SLP114 T02720089





000
SAUS45 KMSO 152054
MTRP69
METAR KP69 152052Z AUTO 00000KT 25/08 A2995 RMK AO1 SLP129 T02500078
58038





000
SAUS45 KMSO 151954
MTRP69
METAR KP69 151952Z AUTO 00000KT 24/03 A2999 RMK AO1 SLP143 T02390033





000
SAUS45 KMSO 151854
MTRP69
METAR KP69 151852Z AUTO 34003KT 20/04 A3003 RMK AO1 SLP160 T02000039





000
SAUS45 KMSO 151754
MTRP69
METAR KP69 151752Z AUTO 00000KT 17/04 A3006 RMK AO1 SLP175 T01720039
10172 20056 58023





000
SAUS45 KMSO 151653
MTRP69
METAR KP69 151652Z AUTO 00000KT 13/04 A3009 RMK AO1 SLP189 T01280044





000
SAUS45 KMSO 151553
MTRP69
METAR KP69 151552Z AUTO 00000KT 09/05 A3012 RMK AO1 SLP199 T00940050





000
SAUS45 KMSO 151453
MTRP69
METAR KP69 151452Z AUTO 00000KT 06/04 A3013 RMK AO1 SLP206 T00610039
51009





000
SAUS45 KMSO 151353
MTRP69
METAR KP69 151352Z AUTO VRB03KT 06/04 A3013 RMK AO1 SLP204 T00560039





000
SAUS45 KMSO 151254
MTRP69
METAR KP69 151252Z AUTO 32003KT 06/04 A3011 RMK AO1 SLP195 T00610044





000
SAUS45 KMSO 151153
MTRP69
METAR KP69 151152Z AUTO 32003KT 07/04 A3011 RMK AO1 SLP190 T00670044
10106 20061 53011





000
SAUS45 KMSO 151053
MTRP69
METAR KP69 151052Z AUTO 33003KT 07/05 A3009 RMK AO1 SLP179 T00720050





000
SAUS45 KMSO 150953
MTRP69
METAR KP69 150952Z AUTO 34004KT 07/06 A3008 RMK AO1 SLP175 T00720056





000
SAUS45 KMSO 150853
MTRP69
METAR KP69 150852Z AUTO 32004KT 08/06 A3007 RMK AO1 SLP172 T00830061
53013





000
SAUS45 KMSO 150754
MTRP69
METAR KP69 150752Z AUTO 34004KT 09/06 A3006 RMK AO1 SLP169 T00890061
402670050





000
SAUS45 KMSO 150654
MTRP69
METAR KP69 150652Z AUTO 33004KT 09/07 A3004 RMK AO1 SLP167 T00940067





000
SAUS45 KMSO 150554
MTRP69
METAR KP69 150552Z AUTO 00000KT 11/07 A3003 RMK AO1 SLP165 T01060072
10211 20106 51019





000
SAUS45 KMSO 150454
MTRP69
METAR KP69 150452Z AUTO 35004KT 12/08 A3002 RMK AO1 SLP162 T01170078





000
SAUS45 KMSO 150354
MTRP69
METAR KP69 150352Z AUTO 33004KT 12/08 A3000 RMK AO1 SLP160 T01220083





000
SAUS45 KMSO 150254
MTRP69
METAR KP69 150252Z AUTO 36003KT 14/08 A2997 RMK AO1 SLP152 T01440083
53017





000
SAUS45 KMSO 150153
MTRP69
METAR KP69 150152Z AUTO 36003KT 15/09 A2994 RMK AO1 SLP142 T01500094





000
SAUS45 KMSO 150054
MTRP69
METAR KP69 150052Z AUTO 35003KT 18/09 A2993 RMK AO1 SLP133 T01780094





000
SAUS45 KMSO 142354
MTRP69
METAR KP69 142352Z AUTO 00000KT 21/09 A2992 RMK AO1 SLP127 T02060089
10267 20161 55013





000
SAUS45 KMSO 142253
MTRP69
METAR KP69 142252Z AUTO 34003KT 25/09 A2992 RMK AO1 SLP121 T02500089





000
SAUS45 KMSO 142153
MTRP69
METAR KP69 142152Z AUTO 00000KT 27/08 A2993 RMK AO1 SLP123 T02670083





000
SAUS45 KMSO 142054
MTRP69
METAR KP69 142052Z AUTO 00000KT 25/07 A2996 RMK AO1 SLP134 T02500067
56030





000
SAUS45 KMSO 141954
MTRP69
METAR KP69 141952Z AUTO 00000KT 22/05 A2999 RMK AO1 SLP145 T02220050





000
SAUS45 KMSO 141854
MTRP69
METAR KP69 141852Z AUTO 00000KT 19/03 A3002 RMK AO1 SLP158 T01940033





000
SAUS45 KMSO 141754
MTRP69
METAR KP69 141752Z AUTO 00000KT 17/05 A3005 RMK AO1 SLP173 T01670050
10167 20050 58016





000
SAUS45 KMSO 141654
MTRP69
METAR KP69 141652Z AUTO 00000KT 13/04 A3008 RMK AO1 SLP185 T01280044





000
SAUS45 KMSO 141554
MTRP69
METAR KP69 141552Z AUTO 00000KT 08/04 A3010 RMK AO1 SLP193 T00830039





    US Dept of Commerce
    National Oceanic and Atmospheric Administration
    National Weather Service
    1325 East West Highway
    Silver Spring, MD 20910
    Page Author: NWS Internet Services Team
Disclaimer
Information Quality
Credits
Glossary
Privacy Policy
Freedom of Information Act (FOIA)
About Us
Career Opportunities